createdAt,value
2022-12-28T00:00:35.426Z,3.30
2022-12-28T00:03:07.090Z,3.40
2022-12-28T00:05:38.537Z,3.40
2022-12-28T00:08:09.865Z,3.40
2022-12-28T00:11:08.211Z,3.30
2022-12-28T00:13:14.276Z,3.20
2022-12-28T00:15:45.722Z,3.10
2022-12-28T00:18:17.049Z,3.10
2022-12-28T00:20:57.281Z,3.00
2022-12-28T00:23:28.982Z,3.00
2022-12-28T00:26:09.423Z,3.00
2022-12-28T00:28:41.092Z,3.10
2022-12-28T00:31:12.969Z,3.10
2022-12-28T00:33:44.540Z,3.10
2022-12-28T00:36:16.853Z,3.10
2022-12-28T00:38:48.257Z,3.10
2022-12-28T00:41:19.641Z,3.10
2022-12-28T00:43:51.132Z,3.20
2022-12-28T00:46:22.513Z,3.20
2022-12-28T00:48:54.088Z,3.20
2022-12-28T00:51:25.588Z,3.20
2022-12-28T00:53:56.984Z,3.30
2022-12-28T00:56:28.383Z,3.20
2022-12-28T00:59:00.697Z,3.20
2022-12-28T01:01:32.172Z,3.20
2022-12-28T01:04:03.737Z,3.20
2022-12-28T01:06:35.148Z,3.20
2022-12-28T01:09:06.565Z,3.10
2022-12-28T01:11:38.060Z,3.10
2022-12-28T01:14:09.508Z,3.00
2022-12-28T01:16:41.174Z,3.00
2022-12-28T01:19:16.405Z,3.00
2022-12-28T01:21:49.849Z,2.90
2022-12-28T01:24:21.726Z,2.80
2022-12-28T01:26:53.362Z,2.60
2022-12-28T01:29:25.460Z,2.60
2022-12-28T01:31:56.926Z,2.60
2022-12-28T01:34:28.469Z,2.70
2022-12-28T01:36:59.926Z,2.90
2022-12-28T01:39:31.405Z,2.80
2022-12-28T01:42:03.365Z,2.80
2022-12-28T01:44:43.901Z,2.80
2022-12-28T01:47:22.843Z,2.80
2022-12-28T01:49:58.947Z,2.80
2022-12-28T01:52:35.203Z,2.80
2022-12-28T01:55:10.327Z,2.80
2022-12-28T01:57:45.249Z,3.00
2022-12-28T02:00:19.499Z,3.00
2022-12-28T02:02:54.820Z,3.10
2022-12-28T02:05:29.994Z,3.10
2022-12-28T02:08:05.191Z,3.10
2022-12-28T02:10:44.457Z,3.10
2022-12-28T02:13:12.389Z,3.20
2022-12-28T02:15:44.284Z,3.30
2022-12-28T02:18:18.580Z,3.30
2022-12-28T02:21:04.619Z,3.40
2022-12-28T02:23:47.299Z,3.50
2022-12-28T02:26:42.073Z,3.50
2022-12-28T02:29:26.241Z,3.50
2022-12-28T02:32:03.378Z,3.50
2022-12-28T02:34:38.481Z,3.50
2022-12-28T02:37:13.097Z,3.30
2022-12-28T02:39:47.449Z,3.20
2022-12-28T02:42:20.361Z,3.20
2022-12-28T02:45:09.971Z,3.20
2022-12-28T02:48:02.430Z,3.20
2022-12-28T02:50:38.433Z,3.20
2022-12-28T02:53:32.677Z,3.30
2022-12-28T02:56:19.665Z,3.30
2022-12-28T02:59:11.051Z,3.30
2022-12-28T03:01:57.138Z,3.20
2022-12-28T03:04:33.384Z,3.20
2022-12-28T03:07:42.764Z,3.10
2022-12-28T03:13:02.498Z,3.00
2022-12-28T03:15:36.920Z,3.00
2022-12-28T03:18:29.146Z,2.90
2022-12-28T03:21:21.233Z,2.90
2022-12-28T03:24:12.274Z,2.80
2022-12-28T03:27:04.027Z,2.70
2022-12-28T03:29:56.374Z,2.60
2022-12-28T03:32:27.820Z,2.50
2022-12-28T03:34:59.526Z,2.50
2022-12-28T03:37:34.486Z,2.40
2022-12-28T03:40:09.729Z,2.40
2022-12-28T03:43:01.552Z,2.40
2022-12-28T03:45:46.457Z,2.40
2022-12-28T03:48:10.212Z,2.40
2022-12-28T03:50:44.908Z,2.30
2022-12-28T03:53:17.740Z,2.30
2022-12-28T03:55:49.149Z,2.30
2022-12-28T03:58:22.473Z,2.30
2022-12-28T04:00:53.882Z,2.30
2022-12-28T04:03:25.260Z,2.20
2022-12-28T04:05:57.729Z,2.10
2022-12-28T04:08:29.173Z,2.00
2022-12-28T04:11:02.370Z,2.00
2022-12-28T04:13:34.075Z,2.00
2022-12-28T04:16:08.229Z,2.00
2022-12-28T04:18:41.699Z,2.20
2022-12-28T04:21:14.516Z,2.30
2022-12-28T04:23:47.442Z,2.30
2022-12-28T04:26:19.888Z,2.30
2022-12-28T04:28:51.202Z,2.20
2022-12-28T04:31:22.751Z,2.10
2022-12-28T04:33:54.378Z,2.00
2022-12-28T04:36:25.959Z,2.00
2022-12-28T04:38:58.908Z,2.00
2022-12-28T04:41:30.326Z,2.10
2022-12-28T04:44:02.180Z,2.20
2022-12-28T04:46:33.726Z,2.30
2022-12-28T04:49:05.855Z,2.30
2022-12-28T04:51:37.638Z,2.40
2022-12-28T04:54:12.832Z,2.40
2022-12-28T04:56:44.311Z,2.40
2022-12-28T04:59:15.707Z,2.40
2022-12-28T05:01:47.208Z,2.40
2022-12-28T05:04:18.714Z,2.40
2022-12-28T05:06:50.204Z,2.40
2022-12-28T05:09:21.538Z,2.40
2022-12-28T05:11:52.958Z,2.30
2022-12-28T05:14:24.562Z,2.30
2022-12-28T05:16:56.013Z,2.10
2022-12-28T05:19:27.908Z,2.00
2022-12-28T05:21:59.322Z,2.00
2022-12-28T05:24:30.814Z,2.00
2022-12-28T05:27:02.170Z,2.00
2022-12-28T05:29:33.560Z,2.00
2022-12-28T05:32:07.127Z,2.00
2022-12-28T05:34:38.530Z,2.00
2022-12-28T05:37:09.887Z,1.90
2022-12-28T05:39:41.294Z,1.80
2022-12-28T05:42:13.443Z,1.90
2022-12-28T05:44:45.087Z,2.00
2022-12-28T05:47:16.389Z,2.10
2022-12-28T05:49:48.307Z,2.20
2022-12-28T05:52:19.791Z,2.20
2022-12-28T05:54:51.227Z,2.20
2022-12-28T05:57:22.594Z,2.20
2022-12-28T05:59:54.034Z,2.20
2022-12-28T06:02:27.143Z,2.10
2022-12-28T06:04:59.007Z,2.10
2022-12-28T06:07:30.396Z,2.00
2022-12-28T06:10:01.841Z,2.10
2022-12-28T06:12:33.217Z,2.00
2022-12-28T06:15:05.424Z,2.00
2022-12-28T06:17:37.918Z,1.90
2022-12-28T06:20:12.417Z,1.90
2022-12-28T06:22:43.847Z,1.90
2022-12-28T06:25:15.389Z,1.80
2022-12-28T06:27:47.095Z,1.80
2022-12-28T06:30:18.615Z,1.70
2022-12-28T06:32:50.036Z,1.70
2022-12-28T06:35:21.441Z,1.60
2022-12-28T06:37:52.824Z,1.60
2022-12-28T06:40:33.445Z,1.60
2022-12-28T06:42:58.154Z,1.50
2022-12-28T06:45:29.605Z,1.50
2022-12-28T06:48:01.049Z,1.50
2022-12-28T06:50:39.795Z,1.40
2022-12-28T06:53:06.441Z,1.30
2022-12-28T06:55:37.845Z,1.30
2022-12-28T06:58:09.476Z,1.20
2022-12-28T07:00:40.857Z,1.30
2022-12-28T07:03:12.846Z,1.30
2022-12-28T07:05:44.342Z,1.30
2022-12-28T07:08:15.911Z,1.30
2022-12-28T07:10:47.389Z,1.40
2022-12-28T07:13:21.879Z,1.40
2022-12-28T07:15:51.822Z,1.40
2022-12-28T07:18:23.200Z,1.40
2022-12-28T07:20:59.874Z,1.40
2022-12-28T07:23:31.437Z,1.50
2022-12-28T07:26:09.835Z,1.50
2022-12-28T07:28:44.330Z,1.60
2022-12-28T07:31:17.744Z,1.60
2022-12-28T07:33:50.335Z,1.60
2022-12-28T07:36:23.126Z,1.70
2022-12-28T07:38:55.226Z,1.70
2022-12-28T07:41:28.861Z,1.70
2022-12-28T07:44:00.913Z,1.80
2022-12-28T07:46:38.263Z,1.80
2022-12-28T07:49:09.860Z,1.90
2022-12-28T07:51:41.427Z,1.90
2022-12-28T07:54:13.112Z,2.00
2022-12-28T07:56:44.462Z,2.10
2022-12-28T07:59:15.858Z,2.20
2022-12-28T08:01:47.267Z,2.30
2022-12-28T08:04:19.441Z,2.30
2022-12-28T08:06:50.901Z,2.40
2022-12-28T08:09:22.914Z,2.50
2022-12-28T08:11:54.326Z,2.50
2022-12-28T08:14:26.094Z,2.60
2022-12-28T08:16:57.129Z,2.70
2022-12-28T08:19:28.652Z,2.80
2022-12-28T08:22:00.764Z,2.90
2022-12-28T08:24:32.282Z,3.00
2022-12-28T08:27:03.658Z,3.10
2022-12-28T08:29:35.245Z,3.20
2022-12-28T08:32:07.098Z,3.30
2022-12-28T08:34:38.748Z,3.40
2022-12-28T08:37:10.338Z,3.60
2022-12-28T08:39:41.771Z,3.70
2022-12-28T08:42:13.262Z,3.80
2022-12-28T08:44:44.732Z,3.90
2022-12-28T08:47:16.204Z,4.10
2022-12-28T08:49:48.740Z,4.20
2022-12-28T08:52:20.221Z,4.40
2022-12-28T08:54:51.654Z,4.60
2022-12-28T08:57:23.193Z,4.70
2022-12-28T08:59:55.201Z,4.90
2022-12-28T09:02:26.685Z,4.90
2022-12-28T09:04:58.248Z,5.00
2022-12-28T09:07:29.634Z,5.10
2022-12-28T09:10:01.245Z,5.20
2022-12-28T09:12:32.693Z,5.20
2022-12-28T09:15:04.150Z,5.20
2022-12-28T09:17:35.812Z,5.20
2022-12-28T09:20:09.505Z,5.20
2022-12-28T09:22:40.974Z,5.20
2022-12-28T09:25:12.141Z,5.20
2022-12-28T09:27:43.460Z,5.20
2022-12-28T09:30:15.426Z,5.20
2022-12-28T09:32:51.615Z,5.10
2022-12-28T09:35:23.125Z,5.10
2022-12-28T09:37:54.481Z,5.20
2022-12-28T09:40:25.948Z,5.20
2022-12-28T09:42:57.589Z,5.40
2022-12-28T09:45:29.090Z,5.50
2022-12-28T09:48:03.529Z,5.50
2022-12-28T09:50:35.920Z,5.60
2022-12-28T09:56:30.395Z,5.80
2022-12-28T09:59:02.719Z,6.00
2022-12-28T10:01:36.802Z,6.10
2022-12-28T10:04:08.286Z,6.20
2022-12-28T10:06:41.188Z,6.30
2022-12-28T10:09:17.069Z,6.40
2022-12-28T10:12:02.483Z,6.60
2022-12-28T10:14:37.091Z,6.60
2022-12-28T10:17:10.402Z,6.70
2022-12-28T10:19:41.905Z,6.70
2022-12-28T10:22:17.430Z,6.60
2022-12-28T10:24:49.899Z,6.60
2022-12-28T10:27:25.079Z,6.60
2022-12-28T10:29:56.722Z,6.60
2022-12-28T10:32:28.244Z,6.60
2022-12-28T10:35:01.823Z,6.70
2022-12-28T10:37:36.937Z,6.70
2022-12-28T10:40:17.373Z,6.70
2022-12-28T10:42:52.141Z,6.80
2022-12-28T10:45:32.214Z,6.80
2022-12-28T10:48:06.639Z,6.90
2022-12-28T10:50:52.291Z,6.90
2022-12-28T10:53:30.535Z,7.00
2022-12-28T10:56:08.414Z,6.90
2022-12-28T10:58:40.405Z,6.90
2022-12-28T11:01:20.246Z,6.90
2022-12-28T11:04:03.642Z,7.00
2022-12-28T11:06:36.102Z,6.90
2022-12-28T11:09:19.334Z,7.00
2022-12-28T11:11:52.931Z,7.00
2022-12-28T11:14:31.392Z,7.00
2022-12-28T11:17:16.204Z,7.00
2022-12-28T11:19:49.204Z,7.00
2022-12-28T11:22:23.757Z,7.00
2022-12-28T11:24:55.482Z,7.00
2022-12-28T11:27:26.845Z,7.00
2022-12-28T11:29:58.762Z,7.00
2022-12-28T11:32:33.544Z,7.00
2022-12-28T11:35:05.728Z,6.90
2022-12-28T11:37:37.132Z,6.90
2022-12-28T11:40:13.429Z,6.90
2022-12-28T11:42:58.293Z,6.90
2022-12-28T11:49:02.126Z,6.90
2022-12-28T11:51:34.661Z,6.80
2022-12-28T11:54:08.593Z,6.80
2022-12-28T12:02:42.695Z,6.80
2022-12-28T12:08:45.726Z,6.90
2022-12-28T12:11:33.304Z,6.90
2022-12-28T12:14:07.161Z,7.00
2022-12-28T12:16:44.537Z,7.10
2022-12-28T12:19:20.575Z,7.10
2022-12-28T12:21:57.563Z,7.10
2022-12-28T12:24:31.918Z,7.10
2022-12-28T12:27:12.067Z,7.10
2022-12-28T12:29:43.125Z,7.10
2022-12-28T12:32:18.507Z,7.20
2022-12-28T12:34:52.468Z,7.20
2022-12-28T12:37:40.133Z,7.20
2022-12-28T12:40:42.427Z,7.30
2022-12-28T12:43:33.426Z,7.20
2022-12-28T12:46:22.602Z,7.30
2022-12-28T12:49:04.616Z,7.30
2022-12-28T12:51:39.261Z,7.30
2022-12-28T12:54:20.318Z,7.30
2022-12-28T12:56:55.488Z,7.30
2022-12-28T12:59:43.963Z,7.30
2022-12-28T13:02:30.210Z,7.30
2022-12-28T13:05:05.202Z,7.30
2022-12-28T13:07:36.629Z,7.30
2022-12-28T13:10:12.906Z,7.40
2022-12-28T13:12:44.327Z,7.40
2022-12-28T13:15:19.605Z,7.40
2022-12-28T13:18:43.487Z,7.40
2022-12-28T13:20:39.144Z,7.40
2022-12-28T13:23:17.371Z,7.50
2022-12-28T13:25:52.053Z,7.50
2022-12-28T13:28:27.226Z,7.50
2022-12-28T13:31:04.542Z,7.50
2022-12-28T13:33:35.925Z,7.50
2022-12-28T13:36:14.215Z,7.50
2022-12-28T13:38:45.825Z,7.50
2022-12-28T13:41:23.147Z,7.50
2022-12-28T13:44:33.746Z,7.50
2022-12-28T13:47:09.920Z,7.60
2022-12-28T13:49:45.300Z,7.60
2022-12-28T13:52:20.122Z,7.60
2022-12-28T13:54:55.578Z,7.60
2022-12-28T13:57:46.738Z,7.50
2022-12-28T14:00:03.400Z,7.50
2022-12-28T14:02:35.966Z,7.40
2022-12-28T14:05:08.798Z,7.30
2022-12-28T14:07:40.234Z,7.20
2022-12-28T14:10:14.466Z,7.10
2022-12-28T14:12:46.722Z,7.00
2022-12-28T14:15:19.220Z,7.00
2022-12-28T14:17:52.440Z,7.00
2022-12-28T14:20:23.846Z,7.00
2022-12-28T14:22:55.692Z,7.00
2022-12-28T14:25:27.163Z,7.00
2022-12-28T14:28:01.377Z,6.90
2022-12-28T14:30:34.839Z,6.80
2022-12-28T14:33:20.861Z,6.80
2022-12-28T14:35:47.915Z,6.80
2022-12-28T14:38:22.149Z,6.70
2022-12-28T14:40:58.382Z,6.60
2022-12-28T14:43:32.076Z,6.50
2022-12-28T14:46:19.246Z,6.40
2022-12-28T14:48:50.640Z,6.30
2022-12-28T14:51:31.020Z,6.30
2022-12-28T14:54:23.601Z,6.20
2022-12-28T14:56:58.787Z,6.10
2022-12-28T14:59:34.191Z,6.00
2022-12-28T15:02:07.015Z,6.00
2022-12-28T15:04:40.646Z,5.90
2022-12-28T15:07:12.989Z,5.90
2022-12-28T15:09:46.937Z,5.90
2022-12-28T15:12:22.136Z,5.90
2022-12-28T15:14:54.052Z,5.90
2022-12-28T15:17:29.928Z,5.90
2022-12-28T15:19:58.641Z,5.90
2022-12-28T15:22:30.410Z,5.90
2022-12-28T15:25:01.778Z,5.80
2022-12-28T15:27:33.284Z,5.80
2022-12-28T15:30:06.259Z,5.70
2022-12-28T15:32:37.932Z,5.60
2022-12-28T15:35:10.312Z,5.60
2022-12-28T15:37:41.716Z,5.60
2022-12-28T15:40:13.788Z,5.70
2022-12-28T15:42:46.485Z,5.60
2022-12-28T15:45:19.098Z,5.60
2022-12-28T15:47:51.985Z,5.50
2022-12-28T15:50:23.313Z,5.60
2022-12-28T15:52:54.798Z,5.60
2022-12-28T15:55:26.276Z,5.60
2022-12-28T15:57:57.770Z,5.70
2022-12-28T16:00:29.136Z,5.70
2022-12-28T16:03:00.749Z,5.70
2022-12-28T16:05:32.362Z,5.60
2022-12-28T16:08:03.760Z,5.60
2022-12-28T16:10:35.120Z,5.50
2022-12-28T16:13:06.509Z,5.40
2022-12-28T16:15:37.919Z,5.20
2022-12-28T16:18:09.640Z,5.10
2022-12-28T16:20:40.961Z,4.90
2022-12-28T16:23:12.400Z,4.80
2022-12-28T16:25:50.814Z,4.70
2022-12-28T16:28:22.316Z,4.70
2022-12-28T16:30:53.646Z,4.70
2022-12-28T16:33:26.456Z,4.60
2022-12-28T16:35:59.967Z,4.60
2022-12-28T16:38:30.997Z,4.70
2022-12-28T16:41:02.575Z,4.60
2022-12-28T16:43:33.925Z,4.70
2022-12-28T16:46:09.616Z,4.70
2022-12-28T16:48:41.908Z,4.80
2022-12-28T16:51:14.009Z,4.80
2022-12-28T16:53:45.371Z,4.80
2022-12-28T16:56:16.775Z,4.90
2022-12-28T16:58:49.609Z,4.90
2022-12-28T17:01:21.275Z,5.00
2022-12-28T17:03:55.331Z,5.00
2022-12-28T17:06:26.927Z,5.10
2022-12-28T17:08:58.431Z,5.10
2022-12-28T17:11:29.863Z,5.00
2022-12-28T17:14:05.773Z,5.00
2022-12-28T17:16:37.468Z,5.00
2022-12-28T17:19:09.998Z,5.00
2022-12-28T17:21:41.445Z,5.00
2022-12-28T17:24:13.362Z,5.00
2022-12-28T17:26:44.779Z,5.10
2022-12-28T17:29:16.212Z,5.10
2022-12-28T17:31:49.174Z,5.20
2022-12-28T17:34:20.517Z,5.20
2022-12-28T17:36:52.756Z,5.20
2022-12-28T17:39:24.136Z,5.10
2022-12-28T17:41:55.575Z,5.10
2022-12-28T17:44:26.940Z,5.10
2022-12-28T17:46:58.567Z,5.10
2022-12-28T17:49:30.018Z,5.00
2022-12-28T17:52:01.567Z,5.00
2022-12-28T17:54:33.294Z,4.90
2022-12-28T17:57:04.790Z,4.90
2022-12-28T17:59:36.741Z,4.80
2022-12-28T18:02:10.425Z,4.80
2022-12-28T18:04:42.579Z,4.90
2022-12-28T18:07:14.000Z,4.90
2022-12-28T18:09:45.609Z,4.90
2022-12-28T18:12:17.131Z,4.90
2022-12-28T18:14:48.565Z,4.80
2022-12-28T18:17:22.039Z,4.80
2022-12-28T18:19:55.025Z,4.70
2022-12-28T18:22:26.588Z,4.60
2022-12-28T18:24:58.067Z,4.40
2022-12-28T18:27:29.597Z,4.30
2022-12-28T18:30:00.920Z,4.30
2022-12-28T18:32:32.427Z,4.30
2022-12-28T18:35:03.786Z,4.30
2022-12-28T18:37:35.589Z,4.30
2022-12-28T18:40:10.015Z,4.30
2022-12-28T18:42:41.408Z,4.30
2022-12-28T18:45:13.453Z,4.30
2022-12-28T18:47:45.653Z,4.20
2022-12-28T18:50:17.958Z,4.20
2022-12-28T18:52:50.387Z,4.10
2022-12-28T18:55:21.911Z,4.10
2022-12-28T18:57:53.235Z,4.00
2022-12-28T19:00:24.848Z,3.90
2022-12-28T19:02:56.477Z,3.80
2022-12-28T19:05:28.080Z,3.70
2022-12-28T19:07:59.411Z,3.60
2022-12-28T19:10:30.902Z,3.60
2022-12-28T19:13:03.093Z,3.50
2022-12-28T19:15:34.657Z,3.50
2022-12-28T19:18:06.275Z,3.50
2022-12-28T19:20:37.699Z,3.40
2022-12-28T19:23:12.095Z,3.40
2022-12-28T19:25:43.721Z,3.30
2022-12-28T19:28:15.088Z,3.30
2022-12-28T19:30:46.489Z,3.30
2022-12-28T19:33:17.882Z,3.30
2022-12-28T19:35:49.457Z,3.40
2022-12-28T19:38:20.913Z,3.50
2022-12-28T19:40:53.631Z,3.40
2022-12-28T19:43:25.211Z,3.30
2022-12-28T19:46:02.939Z,3.30
2022-12-28T19:48:36.058Z,3.20
2022-12-28T19:51:08.198Z,3.30
2022-12-28T19:53:40.412Z,3.30
2022-12-28T19:56:18.016Z,3.30
2022-12-28T19:58:49.695Z,3.30
2022-12-28T20:01:24.962Z,3.40
2022-12-28T20:03:58.152Z,3.50
2022-12-28T20:06:31.055Z,3.70
2022-12-28T20:09:03.373Z,3.90
2022-12-28T20:11:34.803Z,3.90
2022-12-28T20:14:06.960Z,4.00
2022-12-28T20:16:38.588Z,4.00
2022-12-28T20:19:11.613Z,4.00
2022-12-28T20:21:44.110Z,4.20
2022-12-28T20:24:16.278Z,4.30
2022-12-28T20:26:47.723Z,4.40
2022-12-28T20:29:19.526Z,4.50
2022-12-28T20:31:52.426Z,4.60
2022-12-28T20:34:23.967Z,4.60
2022-12-28T20:36:55.489Z,4.70
2022-12-28T20:39:27.114Z,4.50
2022-12-28T20:42:16.350Z,4.40
2022-12-28T20:44:47.829Z,4.30
2022-12-28T20:47:19.956Z,4.40
2022-12-28T20:49:52.665Z,4.70
2022-12-28T20:52:24.167Z,5.10
2022-12-28T20:54:55.867Z,5.30
2022-12-28T20:57:27.728Z,5.30
2022-12-28T20:59:59.239Z,5.20
2022-12-28T21:02:30.621Z,5.00
2022-12-28T21:05:02.193Z,4.80
2022-12-28T21:07:33.605Z,4.70
2022-12-28T21:10:05.318Z,4.60
2022-12-28T21:12:36.732Z,4.50
2022-12-28T21:15:10.129Z,4.40
2022-12-28T21:17:41.581Z,4.30
2022-12-28T21:20:13.702Z,4.40
2022-12-28T21:22:45.099Z,4.60
2022-12-28T21:25:16.714Z,4.60
2022-12-28T21:27:48.317Z,4.70
2022-12-28T21:30:20.152Z,4.70
2022-12-28T21:32:51.646Z,4.70
2022-12-28T21:35:23.252Z,4.70
2022-12-28T21:37:55.216Z,4.70
2022-12-28T21:40:27.071Z,4.60
2022-12-28T21:42:58.562Z,4.60
2022-12-28T21:45:30.380Z,4.80
2022-12-28T21:48:02.373Z,4.90
2022-12-28T21:50:33.875Z,5.00
2022-12-28T21:53:05.248Z,4.80
2022-12-28T21:55:43.831Z,4.70
2022-12-28T21:58:15.197Z,4.50
2022-12-28T22:01:04.297Z,4.40
2022-12-28T22:03:53.317Z,4.30
2022-12-28T22:06:24.738Z,4.40
2022-12-28T22:09:13.900Z,4.40
2022-12-28T22:12:03.174Z,4.30
2022-12-28T22:14:34.580Z,4.20
2022-12-28T22:17:09.666Z,4.10
2022-12-28T22:19:39.218Z,4.00
2022-12-28T22:22:10.657Z,4.10
2022-12-28T22:24:41.989Z,3.90
2022-12-28T22:27:13.388Z,3.80
2022-12-28T22:29:44.810Z,3.60
2022-12-28T22:32:16.335Z,3.50
2022-12-28T22:34:47.678Z,3.40
2022-12-28T22:37:19.201Z,3.30
2022-12-28T22:39:50.555Z,3.20
2022-12-28T22:42:22.215Z,3.10
2022-12-28T22:44:53.555Z,3.00
2022-12-28T22:47:26.839Z,2.90
2022-12-28T22:49:58.290Z,2.80
2022-12-28T22:52:29.872Z,2.80
2022-12-28T22:55:01.200Z,2.80
2022-12-28T22:57:32.657Z,2.80
2022-12-28T23:00:04.984Z,2.80
2022-12-28T23:02:37.650Z,2.90
2022-12-28T23:05:09.790Z,2.90
2022-12-28T23:07:41.759Z,3.00
2022-12-28T23:10:13.998Z,3.00
2022-12-28T23:12:45.171Z,3.00
2022-12-28T23:15:19.104Z,3.00
2022-12-28T23:17:52.894Z,3.00
2022-12-28T23:20:42.221Z,3.00
2022-12-28T23:23:31.315Z,3.00
2022-12-28T23:26:25.156Z,3.00
2022-12-28T23:28:56.516Z,2.90
2022-12-28T23:31:29.600Z,3.00
2022-12-28T23:34:01.004Z,3.00
2022-12-28T23:36:34.620Z,3.00
2022-12-28T23:39:06.167Z,2.90
2022-12-28T23:41:50.778Z,2.90
2022-12-28T23:44:24.244Z,2.80
2022-12-28T23:46:59.388Z,2.70
2022-12-28T23:49:29.031Z,2.60
2022-12-28T23:52:00.458Z,2.50
2022-12-28T23:54:31.921Z,2.50
2022-12-28T23:57:05.253Z,2.50
2022-12-28T23:59:37.398Z,2.50
